Time;durP1;ratioP1;P1;durP2;ratioP2;P2;SDS_P1;SDS_P2;PMS_P1;PMS_P2;Temp;Humidity;BMP_temperature;BMP_pressure;BME280_temperature;BME280_humidity;BME280_pressure;Samples;Min_cycle;Max_cycle;Signal;HPM_P1;HPM_P2
2023/06/13 00:00:33;;;;;;;10.02;7.47;;;;;;;19.91;99.07;98862.59;5031004;28;20017;-73
2023/06/13 00:03:00;;;;;;;9.15;7.57;;;;;;;19.94;99.44;98858.94;5027573;28;20527;-73
2023/06/13 00:05:25;;;;;;;10.38;8.45;;;;;;;20.07;98.08;98867.78;5035137;28;20120;-73
2023/06/13 00:07:51;;;;;;;9.23;7.22;;;;;;;20.07;97.95;98862.09;5021605;28;20496;-73
2023/06/13 00:10:16;;;;;;;10.65;9.55;;;;;;;20.09;97.92;98862.53;5013851;28;20026;-73
2023/06/13 00:12:44;;;;;;;12.40;9.20;;;;;;;20.14;97.73;98861.25;5022842;28;20576;-74
2023/06/13 00:15:11;;;;;;;14.15;8.85;;;;;;;20.15;97.41;98860.03;5019568;28;20022;-74
2023/06/13 00:17:40;;;;;;;10.52;8.85;;;;;;;20.14;97.48;98852.72;5015046;28;20026;-74
2023/06/13 00:20:06;;;;;;;15.45;9.45;;;;;;;20.14;96.61;98850.72;5014885;28;20489;-73
2023/06/13 00:22:32;;;;;;;9.70;8.57;;;;;;;19.97;98.23;98852.44;5014508;28;20022;-73
2023/06/13 00:24:57;;;;;;;13.65;9.88;;;;;;;19.88;99.07;98843.53;5022661;28;20527;-73
2023/06/13 00:27:23;;;;;;;9.45;8.40;;;;;;;19.70;100.00;98844.44;5017385;28;20134;-74
2023/06/13 00:29:48;;;;;;;10.40;8.98;;;;;;;19.73;100.00;98848.47;5033258;28;20029;-73
2023/06/13 00:32:15;;;;;;;8.32;7.53;;;;;;;19.54;100.00;98847.75;5033968;28;20029;-74
2023/06/13 00:34:40;;;;;;;10.98;8.23;;;;;;;19.56;100.00;98853.03;5018313;28;20029;-73
2023/06/13 00:37:09;;;;;;;9.32;8.25;;;;;;;19.44;100.00;98860.78;5018173;28;20099;-73
2023/06/13 00:39:37;;;;;;;15.05;9.55;;;;;;;19.29;100.00;98843.00;5031271;28;20069;-73
2023/06/13 00:42:03;;;;;;;11.70;9.40;;;;;;;19.29;100.00;98848.66;5015667;28;20064;-73
2023/06/13 00:44:29;;;;;;;11.27;9.43;;;;;;;19.14;100.00;98844.25;5025689;28;20508;-74
2023/06/13 00:46:56;;;;;;;11.52;8.73;;;;;;;19.21;100.00;98853.56;5034292;28;20049;-74
2023/06/13 00:49:21;;;;;;;13.63;8.65;;;;;;;19.13;100.00;98843.44;5034143;28;20031;-73
2023/06/13 00:51:47;;;;;;;12.10;9.13;;;;;;;19.20;100.00;98851.09;5032337;28;20488;-74
2023/06/13 00:54:13;;;;;;;9.13;7.82;;;;;;;19.16;100.00;98842.63;5032260;28;20103;-74
2023/06/13 00:56:40;;;;;;;9.40;8.40;;;;;;;19.25;100.00;98835.72;5024328;28;20543;-74
2023/06/13 00:59:08;;;;;;;12.73;8.75;;;;;;;19.14;100.00;98833.72;5014248;28;20088;-73
2023/06/13 01:01:34;;;;;;;9.95;8.85;;;;;;;19.11;100.00;98834.53;5015231;28;20408;-73
2023/06/13 01:03:59;;;;;;;11.20;7.80;;;;;;;19.19;100.00;98827.66;5030829;28;20033;-74
2023/06/13 01:06:29;;;;;;;7.97;7.18;;;;;;;19.36;100.00;98830.81;5029418;28;20094;-73
2023/06/13 01:08:58;;;;;;;10.20;8.13;;;;;;;19.27;100.00;98828.44;5033853;28;20028;-74
2023/06/13 01:11:28;;;;;;;9.35;8.18;;;;;;;19.32;100.00;98830.03;5033612;28;20502;-74
2023/06/13 01:14:40;;;;;;;11.27;8.65;;;;;;;19.53;100.00;98828.31;5026699;28;20025;-74
2023/06/13 01:17:14;;;;;;;10.02;8.70;;;;;;;19.62;100.00;98831.50;5032489;28;20488;-74
2023/06/13 01:19:43;;;;;;;13.20;9.15;;;;;;;19.68;99.56;98829.88;5033557;28;20033;-73
2023/06/13 01:22:22;;;;;;;11.30;9.95;;;;;;;19.77;98.79;98829.41;5030735;28;20516;-73
2023/06/13 01:24:58;;;;;;;10.98;9.00;;;;;;;19.78;98.04;98828.19;5025151;28;20027;-74
2023/06/13 01:27:25;;;;;;;10.00;8.75;;;;;;;19.75;98.07;98812.00;5033079;28;20079;-74
2023/06/13 01:29:54;;;;;;;10.90;8.70;;;;;;;19.53;99.10;98829.13;5027485;28;20037;-74
2023/06/13 01:32:22;;;;;;;9.63;8.63;;;;;;;19.33;100.00;98826.78;5028477;28;20047;-74
2023/06/13 01:34:49;;;;;;;10.60;9.27;;;;;;;19.31;100.00;98831.25;5018464;28;20164;-74
2023/06/13 01:37:15;;;;;;;12.27;9.73;;;;;;;19.40;100.00;98830.81;5028680;28;20033;-75
2023/06/13 01:39:41;;;;;;;12.38;9.45;;;;;;;19.43;100.00;98819.47;5033087;28;20508;-74
2023/06/13 01:42:06;;;;;;;14.27;8.80;;;;;;;19.41;99.93;98819.03;5022697;28;20096;-74
2023/06/13 01:44:33;;;;;;;13.30;10.32;;;;;;;19.56;98.87;98827.50;5012111;28;20530;-73
2023/06/13 01:47:19;;;;;;;11.00;9.60;;;;;;;19.61;97.74;98830.72;5011416;28;20018;-73
2023/06/13 01:50:05;;;;;;;13.20;9.88;;;;;;;19.59;97.84;98827.47;5011960;28;20030;-74
2023/06/13 01:52:34;;;;;;;11.80;8.75;;;;;;;19.56;97.92;98824.66;5025063;28;20030;-74
2023/06/13 01:55:04;;;;;;;12.48;10.18;;;;;;;19.44;98.52;98825.91;5030867;28;20029;-73
2023/06/13 01:57:38;;;;;;;17.27;11.38;;;;;;;19.46;98.98;98835.63;5031660;28;20029;-74
2023/06/13 02:00:05;;;;;;;12.25;10.30;;;;;;;19.43;99.60;98832.81;5032138;28;20021;-73
2023/06/13 02:02:31;;;;;;;11.43;9.95;;;;;;;19.40;99.72;98831.59;5021661;28;20025;-74
2023/06/13 02:04:57;;;;;;;12.77;11.07;;;;;;;19.45;99.65;98833.22;5017654;28;20070;-74
2023/06/13 02:07:24;;;;;;;12.70;9.80;;;;;;;19.51;99.44;98837.25;5032878;28;20022;-73
2023/06/13 02:09:50;;;;;;;16.05;10.77;;;;;;;19.38;100.00;98836.09;5031425;28;20083;-73
2023/06/13 02:12:15;;;;;;;14.25;11.32;;;;;;;19.42;99.53;98834.81;5023788;28;20386;-73
2023/06/13 02:14:42;;;;;;;17.05;12.98;;;;;;;19.45;99.15;98834.03;5030831;28;20030;-74
2023/06/13 02:17:08;;;;;;;14.13;11.60;;;;;;;19.46;98.79;98841.31;5031264;28;20018;-73
2023/06/13 02:19:34;;;;;;;12.85;10.82;;;;;;;19.42;99.04;98832.00;5032536;28;20100;-73
2023/06/13 02:22:00;;;;;;;13.80;11.20;;;;;;;19.42;99.61;98826.31;5020520;28;20030;-74
2023/06/13 02:24:25;;;;;;;11.85;10.65;;;;;;;19.53;99.59;98839.66;5020794;28;20393;-73
2023/06/13 02:26:51;;;;;;;14.02;11.90;;;;;;;19.47;99.31;98831.59;5031443;28;20021;-73
2023/06/13 02:29:18;;;;;;;12.77;11.13;;;;;;;19.59;98.76;98823.84;5032467;28;20017;-73
2023/06/13 02:31:44;;;;;;;27.80;12.70;;;;;;;19.67;98.46;98830.28;5024205;28;20060;-73
2023/06/13 02:34:11;;;;;;;15.38;11.60;;;;;;;19.61;99.03;98829.91;5015457;28;20475;-74
2023/06/13 02:36:37;;;;;;;14.38;11.52;;;;;;;19.56;99.58;98836.81;5012173;28;20018;-73
2023/06/13 02:39:03;;;;;;;13.40;11.93;;;;;;;19.59;99.83;98838.03;5010511;28;20366;-73
2023/06/13 02:41:29;;;;;;;15.25;12.43;;;;;;;19.61;99.27;98841.25;5016137;28;20488;-74
2023/06/13 02:43:54;;;;;;;13.10;11.68;;;;;;;19.63;99.64;98848.13;5028931;28;20028;-73
2023/06/13 02:46:20;;;;;;;13.50;12.10;;;;;;;19.59;99.33;98847.31;5031981;28;20017;-74
2023/06/13 02:48:45;;;;;;;16.02;12.65;;;;;;;19.60;99.50;98850.97;5031984;28;20032;-73
2023/06/13 02:51:11;;;;;;;19.08;11.65;;;;;;;19.66;99.30;98855.00;5030270;28;20116;-73
2023/06/13 02:53:36;;;;;;;14.10;11.25;;;;;;;19.55;100.00;98854.22;5026160;28;20057;-73
2023/06/13 02:56:02;;;;;;;16.20;13.30;;;;;;;19.54;100.00;98850.59;5031754;28;20397;-73
2023/06/13 02:58:27;;;;;;;14.60;12.38;;;;;;;19.34;100.00;98851.06;5031770;28;20086;-74
2023/06/13 03:00:53;;;;;;;22.25;13.35;;;;;;;19.40;100.00;98851.44;5031280;28;20021;-74
2023/06/13 03:03:18;;;;;;;23.80;13.73;;;;;;;19.33;100.00;98862.84;5010824;28;20049;-74
2023/06/13 03:05:47;;;;;;;19.27;13.10;;;;;;;19.44;100.00;98862.78;5010600;28;20030;-73
2023/06/13 03:08:18;;;;;;;18.63;13.55;;;;;;;19.28;100.00;98857.56;5011306;28;20021;-74
2023/06/13 03:10:44;;;;;;;32.63;14.27;;;;;;;19.17;100.00;98864.06;5011810;28;20021;-74
2023/06/13 03:13:09;;;;;;;19.35;12.88;;;;;;;19.08;100.00;98843.88;5010421;28;20029;-73
2023/06/13 03:15:35;;;;;;;15.95;13.18;;;;;;;19.15;100.00;98860.84;5010514;28;20033;-73
2023/06/13 03:18:00;;;;;;;25.02;14.05;;;;;;;19.01;100.00;98858.03;5011745;28;20168;-73
2023/06/13 03:20:26;;;;;;;19.35;14.32;;;;;;;18.94;100.00;98867.34;5010474;28;20030;-73
2023/06/13 03:22:51;;;;;;;17.65;14.93;;;;;;;18.85;100.00;98862.09;5011826;28;20030;-73
2023/06/13 03:25:18;;;;;;;23.83;14.50;;;;;;;18.79;100.00;98864.53;5019262;28;20152;-74
2023/06/13 03:27:44;;;;;;;22.13;16.45;;;;;;;18.70;100.00;98860.47;5010858;28;20018;-73
2023/06/13 03:30:10;;;;;;;30.38;16.80;;;;;;;18.72;100.00;98869.38;5010260;28;20059;-74
2023/06/13 03:32:36;;;;;;;20.10;15.55;;;;;;;18.65;100.00;98862.50;5024340;28;20033;-71
2023/06/13 03:35:02;;;;;;;25.67;16.17;;;;;;;18.51;100.00;98854.00;5016531;28;20077;-73
2023/06/13 03:37:28;;;;;;;22.08;16.85;;;;;;;18.46;100.00;98863.72;5009560;28;20357;-73
2023/06/13 03:39:53;;;;;;;21.85;14.40;;;;;;;18.44;100.00;98862.50;5010171;28;20034;-77
2023/06/13 03:42:19;;;;;;;19.15;14.55;;;;;;;18.48;100.00;98855.63;5015642;28;20516;-76
2023/06/13 03:44:48;;;;;;;26.35;15.55;;;;;;;18.52;100.00;98866.94;5016469;28;20072;-77
2023/06/13 03:47:16;;;;;;;21.65;15.77;;;;;;;18.60;100.00;98857.25;5007364;28;20033;-77
2023/06/13 03:49:43;;;;;;;20.83;15.85;;;;;;;18.77;100.00;98868.97;5011470;28;20036;-76
2023/06/13 03:52:11;;;;;;;23.65;14.93;;;;;;;18.88;100.00;98868.94;5027390;28;20448;-74
2023/06/13 03:54:36;;;;;;;24.00;16.75;;;;;;;18.83;100.00;98873.03;5028026;28;20033;-74
2023/06/13 03:57:02;;;;;;;25.83;15.85;;;;;;;18.85;100.00;98876.25;5026217;28;20033;-74
2023/06/13 03:59:27;;;;;;;20.45;15.90;;;;;;;18.89;100.00;98879.09;5010016;28;20052;-74
2023/06/13 04:01:53;;;;;;;19.42;16.52;;;;;;;19.07;100.00;98888.38;5015190;28;20032;-74
2023/06/13 04:04:18;;;;;;;21.20;16.63;;;;;;;19.12;100.00;98884.34;5017076;28;20056;-75
2023/06/13 04:06:49;;;;;;;20.83;15.73;;;;;;;19.19;100.00;98878.66;5029940;28;20026;-74
2023/06/13 04:09:14;;;;;;;22.95;17.08;;;;;;;19.22;100.00;98889.19;5027948;28;20032;-74
2023/06/13 04:11:40;;;;;;;19.77;16.10;;;;;;;19.28;100.00;98891.59;5016224;28;20037;-75
2023/06/13 04:14:05;;;;;;;27.65;16.65;;;;;;;19.19;100.00;98892.00;5013866;28;20025;-74
2023/06/13 04:16:31;;;;;;;22.02;18.52;;;;;;;19.17;100.00;98883.91;5012683;28;20081;-75
2023/06/13 04:18:57;;;;;;;23.00;16.67;;;;;;;19.09;100.00;98890.81;5009761;28;20034;-75
2023/06/13 04:21:25;;;;;;;22.90;16.90;;;;;;;19.12;100.00;98886.34;5010961;28;20030;-74
2023/06/13 04:23:52;;;;;;;26.02;19.33;;;;;;;19.08;100.00;98894.88;5012180;28;20030;-74
2023/06/13 04:26:18;;;;;;;22.10;18.02;;;;;;;19.16;100.00;98901.34;5019521;28;20488;-74
2023/06/13 04:28:45;;;;;;;26.15;17.98;;;;;;;19.32;100.00;98900.91;5019385;28;20029;-74
2023/06/13 04:31:11;;;;;;;27.58;16.50;;;;;;;19.20;100.00;98902.97;5015361;28;20077;-74
2023/06/13 04:39:28;;;;;;;31.63;21.02;;;;;;;19.20;100.00;98897.28;5007138;28;20050;-79
2023/06/13 04:41:55;;;;;;;26.40;20.17;;;;;;;19.17;100.00;98903.75;5002813;28;20492;-80
2023/06/13 04:44:28;;;;;;;29.45;19.98;;;;;;;19.08;100.00;98900.56;5002825;28;20454;-79
2023/06/13 04:46:57;;;;;;;27.35;18.98;;;;;;;19.12;100.00;98909.84;5006921;28;20030;-80
2023/06/13 04:49:25;;;;;;;24.30;19.98;;;;;;;19.12;100.00;98906.19;5008400;28;20048;-79
2023/06/13 04:51:50;;;;;;;34.72;21.35;;;;;;;19.05;100.00;98904.19;5011396;28;20033;-79
2023/06/13 04:54:17;;;;;;;27.33;20.77;;;;;;;19.01;100.00;98901.38;5010783;28;20026;-79
2023/06/13 04:56:43;;;;;;;27.35;20.45;;;;;;;19.01;100.00;98909.03;5007246;28;20026;-79
2023/06/13 04:59:09;;;;;;;27.02;21.15;;;;;;;19.10;100.00;98915.13;5011894;28;20036;-80
2023/06/13 05:01:36;;;;;;;29.20;20.92;;;;;;;19.11;100.00;98911.06;5005969;28;20094;-79
2023/06/13 05:04:02;;;;;;;40.88;22.17;;;;;;;19.16;100.00;98913.47;4995213;28;20042;-78
2023/06/13 05:06:29;;;;;;;26.63;18.50;;;;;;;19.25;100.00;98915.09;5009176;28;20022;-81
2023/06/13 05:08:55;;;;;;;26.15;17.45;;;;;;;19.24;100.00;98921.97;5011744;28;20026;-82
2023/06/13 05:11:20;;;;;;;22.85;15.00;;;;;;;19.28;100.00;98919.94;5014063;28;20488;-78
2023/06/13 05:13:46;;;;;;;21.02;15.60;;;;;;;19.23;100.00;98926.81;5010989;28;20492;-81
2023/06/13 05:16:11;;;;;;;18.65;16.02;;;;;;;19.14;100.00;98915.13;5004849;28;20038;-77
2023/06/13 05:18:40;;;;;;;18.80;15.68;;;;;;;19.21;100.00;98915.91;5012757;28;20026;-79
2023/06/13 05:21:06;;;;;;;19.13;16.48;;;;;;;19.33;100.00;98922.38;5013027;28;20048;-81
2023/06/13 05:23:31;;;;;;;20.77;15.18;;;;;;;19.26;100.00;98922.38;5012242;28;20030;-82
2023/06/13 05:25:56;;;;;;;21.98;14.70;;;;;;;19.33;100.00;98931.66;5011120;28;20102;-80
2023/06/13 05:28:22;;;;;;;16.88;13.75;;;;;;;19.34;100.00;98927.63;5009303;28;20026;-79
2023/06/13 05:30:48;;;;;;;21.05;15.35;;;;;;;19.30;100.00;98926.81;5017980;28;20500;-80
2023/06/13 05:33:14;;;;;;;20.90;15.25;;;;;;;19.26;100.00;98923.19;5009234;28;20057;-78
2023/06/13 05:35:40;;;;;;;22.80;15.32;;;;;;;19.32;100.00;98935.72;5010427;28;20028;-79
2023/06/13 05:38:09;;;;;;;17.55;15.65;;;;;;;19.17;100.00;98934.94;5003583;28;20608;-81
2023/06/13 05:40:37;;;;;;;22.92;15.05;;;;;;;19.18;100.00;98950.72;5012834;28;20519;-78
2023/06/13 05:43:04;;;;;;;23.65;16.45;;;;;;;19.28;100.00;98942.63;5002473;28;20030;-79
2023/06/13 05:45:29;;;;;;;25.50;16.25;;;;;;;19.29;100.00;98945.06;5011986;28;20032;-81
2023/06/13 05:47:55;;;;;;;22.63;16.15;;;;;;;19.30;100.00;98941.00;5008671;28;20057;-79
2023/06/13 05:50:21;;;;;;;19.13;14.80;;;;;;;19.47;100.00;98947.03;5010249;28;20503;-79
2023/06/13 05:52:46;;;;;;;26.80;16.35;;;;;;;19.61;100.00;98949.84;5014378;28;20447;-83
2023/06/13 05:55:12;;;;;;;19.73;16.40;;;;;;;19.58;100.00;98941.34;5008246;28;20382;-80
2023/06/13 05:57:39;;;;;;;22.33;16.40;;;;;;;19.69;100.00;98950.63;5006485;28;20461;-80
2023/06/13 06:00:12;;;;;;;19.33;16.27;;;;;;;19.90;100.00;98949.75;4999040;28;20029;-79
2023/06/13 06:02:38;;;;;;;20.38;15.45;;;;;;;20.19;98.34;98955.31;5002079;28;20112;-80
2023/06/13 06:05:04;;;;;;;20.15;15.18;;;;;;;20.19;95.66;98955.31;5000221;28;20123;-79
2023/06/13 06:07:30;;;;;;;18.35;14.07;;;;;;;20.14;95.09;98958.59;4999994;28;20460;-75
2023/06/13 06:09:55;;;;;;;33.67;14.77;;;;;;;20.18;94.41;98950.84;4996057;28;20056;-75
2023/06/13 06:12:21;;;;;;;17.35;14.60;;;;;;;20.16;96.56;98950.47;4998877;28;20492;-75
2023/06/13 06:14:46;;;;;;;18.85;14.50;;;;;;;20.05;94.36;98956.19;5003383;28;20431;-79
2023/06/13 06:17:12;;;;;;;16.23;13.57;;;;;;;20.16;95.00;98958.19;4994786;28;20416;-78
2023/06/13 06:19:37;;;;;;;22.50;15.25;;;;;;;20.14;95.46;98955.75;4997248;28;20530;-79
2023/06/13 06:22:03;;;;;;;21.38;14.45;;;;;;;20.07;95.28;98952.94;4999824;28;20090;-78
2023/06/13 06:24:28;;;;;;;19.45;14.02;;;;;;;20.09;96.37;98956.19;5003581;28;20017;-78
2023/06/13 06:26:54;;;;;;;19.25;14.27;;;;;;;20.08;95.26;98959.44;4999827;28;20018;-75
2023/06/13 06:29:20;;;;;;;22.67;14.30;;;;;;;20.24;92.71;98959.75;5000990;28;20026;-77
2023/06/13 06:31:45;;;;;;;23.83;14.48;;;;;;;20.39;91.13;98945.47;5007399;28;20380;-77
2023/06/13 06:34:11;;;;;;;19.20;14.18;;;;;;;20.29;91.80;98956.50;5003731;28;20140;-77
2023/06/13 06:36:36;;;;;;;25.70;15.70;;;;;;;20.46;92.27;98962.47;5004912;28;20025;-82
2023/06/13 06:39:02;;;;;;;21.45;14.25;;;;;;;20.28;91.76;98954.06;4998466;28;20050;-82
2023/06/13 06:41:27;;;;;;;18.60;13.70;;;;;;;20.24;92.45;98945.56;5011219;28;20476;-80
2023/06/13 06:43:53;;;;;;;20.83;13.80;;;;;;;20.37;91.77;98951.56;5008554;28;20018;-80
2023/06/13 06:46:18;;;;;;;21.58;14.27;;;;;;;20.38;92.70;98946.69;5011776;28;20033;-81
2023/06/13 06:48:44;;;;;;;19.00;14.85;;;;;;;20.53;93.16;98945.41;5008832;28;20025;-82
2023/06/13 06:51:09;;;;;;;19.88;14.82;;;;;;;20.70;92.54;98952.19;5004546;28;20022;-80
2023/06/13 06:53:35;;;;;;;23.65;14.85;;;;;;;20.88;89.92;98959.78;5009073;28;20037;-77
2023/06/13 06:56:00;;;;;;;24.40;17.15;;;;;;;20.90;90.59;98952.47;4995575;28;20415;-77
2023/06/13 06:58:27;;;;;;;21.05;15.73;;;;;;;21.00;89.88;98950.75;5004465;28;20406;-84
2023/06/13 07:00:52;;;;;;;20.65;15.57;;;;;;;21.09;88.62;98961.63;5001022;28;20040;-82
2023/06/13 07:03:18;;;;;;;18.25;15.32;;;;;;;21.15;86.50;98951.44;5010158;28;20036;-84
2023/06/13 07:05:43;;;;;;;19.13;15.27;;;;;;;21.22;85.03;98956.25;5024074;28;20029;-84
2023/06/13 07:08:09;;;;;;;18.92;14.90;;;;;;;21.20;85.48;98940.81;5006468;28;20030;-80
2023/06/13 07:10:35;;;;;;;21.45;15.90;;;;;;;21.36;85.37;98954.47;4997573;28;20484;-85
2023/06/13 07:13:01;;;;;;;27.10;17.75;;;;;;;21.39;86.51;98930.88;5000227;28;20066;-78
2023/06/13 07:15:26;;;;;;;24.77;16.98;;;;;;;21.46;85.26;98956.41;5007940;28;20411;-86
2023/06/13 07:17:51;;;;;;;28.55;17.85;;;;;;;21.39;85.52;98945.91;5009009;28;20083;-84
2023/06/13 07:20:17;;;;;;;23.15;16.88;;;;;;;21.50;84.60;98942.16;5006816;28;20029;-85
2023/06/13 07:22:43;;;;;;;21.58;16.15;;;;;;;21.53;84.93;98955.53;5011593;28;20044;-82
2023/06/13 07:25:08;;;;;;;17.92;16.02;;;;;;;21.70;82.84;98957.38;4998694;28;20123;-78
2023/06/13 07:27:34;;;;;;;19.77;15.48;;;;;;;21.79;83.13;98947.53;5004516;28;20064;-78
2023/06/13 07:29:59;;;;;;;18.65;13.40;;;;;;;21.95;81.51;98949.81;5008292;28;20431;-77
2023/06/13 07:32:26;;;;;;;19.55;15.23;;;;;;;22.02;81.05;98950.50;5006455;28;20034;-82
2023/06/13 07:34:51;;;;;;;22.63;16.30;;;;;;;22.17;82.08;98938.94;5004659;28;20030;-82
2023/06/13 07:37:17;;;;;;;18.13;14.45;;;;;;;22.27;79.64;98934.34;5011068;28;20041;-81
2023/06/13 07:39:42;;;;;;;16.65;14.38;;;;;;;22.15;79.39;98938.56;4997948;28;20092;-78
2023/06/13 07:42:08;;;;;;;23.50;16.20;;;;;;;22.25;78.25;98949.00;5001681;28;20026;-78
2023/06/13 07:44:33;;;;;;;43.13;16.40;;;;;;;22.17;79.71;98941.78;4999012;28;20036;-78
2023/06/13 07:46:59;;;;;;;26.77;16.05;;;;;;;22.11;79.00;98946.34;5000094;28;20018;-78
2023/06/13 07:49:24;;;;;;;17.35;15.48;;;;;;;22.19;79.49;98953.53;5003463;28;20029;-78
2023/06/13 07:51:50;;;;;;;21.50;16.27;;;;;;;22.19;77.77;98941.34;5009717;28;20052;-78
2023/06/13 07:54:16;;;;;;;24.33;15.05;;;;;;;22.15;77.18;98953.63;5006133;28;20054;-80
2023/06/13 07:56:41;;;;;;;15.25;13.75;;;;;;;22.26;77.72;98947.75;5003898;28;20416;-80
2023/06/13 07:59:07;;;;;;;16.45;13.73;;;;;;;22.18;76.29;98943.38;4998738;28;20054;-83
2023/06/13 08:01:32;;;;;;;17.90;14.13;;;;;;;22.38;75.81;98946.34;5004894;28;20103;-84
2023/06/13 08:03:59;;;;;;;37.80;14.60;;;;;;;22.25;77.37;98949.00;5006813;28;20373;-82
2023/06/13 08:06:25;;;;;;;17.50;14.32;;;;;;;22.18;76.14;98934.84;5004497;28;20014;-82
2023/06/13 08:08:50;;;;;;;19.65;14.85;;;;;;;22.24;76.59;98933.16;4999473;28;20447;-82
2023/06/13 08:11:16;;;;;;;17.00;13.80;;;;;;;22.40;76.92;98940.25;5009856;28;20033;-82
2023/06/13 08:13:41;;;;;;;16.60;12.82;;;;;;;22.50;75.34;98950.72;4999120;28;20528;-80
2023/06/13 08:16:07;;;;;;;14.77;13.27;;;;;;;22.56;75.25;98937.59;5002503;28;20017;-82
2023/06/13 08:18:32;;;;;;;18.42;13.00;;;;;;;22.81;74.04;98944.97;4995982;28;20034;-78
2023/06/13 08:20:58;;;;;;;20.10;13.68;;;;;;;22.88;73.83;98943.22;4999389;28;20063;-81
2023/06/13 08:23:23;;;;;;;16.95;13.68;;;;;;;23.06;71.19;98946.59;5010911;28;20034;-81
2023/06/13 08:25:48;;;;;;;15.05;12.30;;;;;;;23.12;72.89;98944.84;5002671;28;20025;-83
2023/06/13 08:28:14;;;;;;;14.70;12.25;;;;;;;23.23;70.00;98944.66;5008766;28;20427;-80
2023/06/13 08:30:42;;;;;;;15.15;12.77;;;;;;;23.09;70.36;98944.88;5012880;28;20111;-83
2023/06/13 08:33:10;;;;;;;15.27;12.77;;;;;;;23.39;70.63;98943.19;5015590;28;20068;-82
2023/06/13 08:35:36;;;;;;;17.02;12.07;;;;;;;23.37;70.86;98937.91;4997804;28;20556;-84
2023/06/13 08:38:01;;;;;;;14.55;13.00;;;;;;;23.61;70.51;98928.50;5010221;28;20051;-81
2023/06/13 08:40:27;;;;;;;18.83;14.10;;;;;;;23.77;70.52;98925.72;5005517;28;20072;-83
2023/06/13 08:42:52;;;;;;;18.52;14.98;;;;;;;23.38;70.60;98928.09;5013464;28;20029;-79
2023/06/13 08:45:18;;;;;;;14.90;13.25;;;;;;;23.42;69.53;98928.03;5012305;28;20552;-81
2023/06/13 08:47:47;;;;;;;19.52;12.82;;;;;;;23.32;68.86;98929.03;4998754;28;20030;-81
2023/06/13 08:50:19;;;;;;;15.00;13.32;;;;;;;23.02;69.73;98931.56;5009389;28;20033;-86
2023/06/13 08:52:47;;;;;;;15.40;12.77;;;;;;;22.45;71.84;98919.84;5015026;28;20029;-81
2023/06/13 08:55:16;;;;;;;12.98;11.02;;;;;;;22.99;73.27;98921.84;5023129;28;20029;-81
2023/06/13 08:57:42;;;;;;;15.32;11.50;;;;;;;23.19;70.96;98926.78;5004013;28;20037;-83
2023/06/13 09:00:12;;;;;;;33.17;13.70;;;;;;;23.08;68.97;98911.91;5010286;28;20034;-85
2023/06/13 09:02:45;;;;;;;13.40;12.00;;;;;;;22.46;70.29;98920.63;5005259;28;20497;-79
2023/06/13 09:05:15;;;;;;;12.80;11.35;;;;;;;22.54;71.74;98911.56;5001400;28;20034;-77
2023/06/13 09:07:50;;;;;;;14.75;11.75;;;;;;;23.10;71.67;98915.94;5006293;28;20026;-79
2023/06/13 09:10:16;;;;;;;15.18;11.45;;;;;;;23.32;70.75;98907.03;5007383;28;20029;-82
2023/06/13 09:12:45;;;;;;;23.27;11.88;;;;;;;23.82;70.78;98910.91;5001134;28;20033;-83
2023/06/13 09:15:11;;;;;;;18.73;11.32;;;;;;;24.30;66.49;98918.53;5000095;28;20830;-81
2023/06/13 09:17:37;;;;;;;18.75;10.57;;;;;;;24.49;65.24;98916.88;5005047;28;20029;-80
2023/06/13 09:20:06;;;;;;;11.80;10.00;;;;;;;24.60;67.16;98917.41;5010259;28;20733;-80
2023/06/13 09:22:36;;;;;;;11.25;9.88;;;;;;;24.13;64.28;98912.75;5009870;28;20125;-81
2023/06/13 09:25:04;;;;;;;17.17;11.70;;;;;;;24.56;66.23;98910.16;5000028;28;20421;-79
2023/06/13 09:27:30;;;;;;;12.57;10.63;;;;;;;24.89;65.46;98910.22;5002531;28;20060;-80
2023/06/13 09:29:59;;;;;;;14.60;10.40;;;;;;;25.18;63.82;98918.06;5007885;28;20034;-78
2023/06/13 09:32:25;;;;;;;11.68;9.88;;;;;;;25.40;62.65;98911.75;5005697;28;20026;-77
2023/06/13 09:34:51;;;;;;;13.30;10.15;;;;;;;25.19;62.42;98905.34;5007162;28;20459;-79
2023/06/13 09:37:17;;;;;;;11.73;10.27;;;;;;;25.12;61.48;98899.84;5004508;28;20056;-81
2023/06/13 09:39:48;;;;;;;11.60;10.40;;;;;;;25.08;61.05;98908.50;5005793;28;20516;-78
2023/06/13 09:42:13;;;;;;;12.90;10.38;;;;;;;25.21;62.13;98897.13;5021925;28;20033;-78
2023/06/13 09:44:39;;;;;;;11.27;10.07;;;;;;;25.19;62.32;98897.59;5025112;28;20030;-79
2023/06/13 09:47:05;;;;;;;17.23;11.38;;;;;;;25.40;60.15;98901.13;5005914;28;20493;-78
2023/06/13 09:49:30;;;;;;;16.25;11.38;;;;;;;25.64;59.63;98893.09;5005278;28;20058;-78
2023/06/13 09:52:00;;;;;;;14.88;9.90;;;;;;;25.74;59.96;98888.31;5003568;28;20029;-79
2023/06/13 09:54:29;;;;;;;13.60;10.80;;;;;;;26.05;58.44;98901.31;5009983;28;20025;-79
2023/06/13 09:56:55;;;;;;;13.88;10.02;;;;;;;25.85;58.71;98896.59;5003738;28;20108;-78
2023/06/13 09:59:20;;;;;;;11.35;10.13;;;;;;;25.53;59.42;98891.81;4990881;28;20129;-79
2023/06/13 10:01:49;;;;;;;14.90;10.20;;;;;;;25.19;58.67;98900.44;4998125;28;20050;-78
2023/06/13 10:04:15;;;;;;;11.52;10.32;;;;;;;24.91;59.30;98888.47;5001997;28;20097;-79
2023/06/13 10:06:42;;;;;;;11.07;9.77;;;;;;;24.95;60.80;98891.25;4998146;28;20109;-79
2023/06/13 10:09:07;;;;;;;11.57;10.23;;;;;;;24.68;60.35;98881.69;5001363;28;20527;-79
2023/06/13 10:11:36;;;;;;;14.02;10.85;;;;;;;24.64;61.30;98895.25;4995161;28;20029;-79
2023/06/13 10:14:11;;;;;;;17.85;11.50;;;;;;;24.88;61.63;98891.47;5000584;28;20485;-79
2023/06/13 10:16:45;;;;;;;12.48;10.98;;;;;;;24.74;59.56;98886.88;5001576;28;20022;-79
2023/06/13 10:19:21;;;;;;;14.57;10.52;;;;;;;24.65;61.81;98876.84;5001574;28;20044;-79
2023/06/13 10:21:48;;;;;;;15.02;11.07;;;;;;;24.68;61.83;98878.84;5021934;28;20037;-79
2023/06/13 10:24:17;;;;;;;14.65;11.23;;;;;;;24.67;62.07;98882.13;5002435;28;20484;-79
2023/06/13 10:26:44;;;;;;;13.25;9.30;;;;;;;24.52;61.75;98864.53;4998473;28;20496;-79
2023/06/13 10:29:28;;;;;;;15.77;11.60;;;;;;;24.80;60.15;98874.47;5007452;28;20030;-79
2023/06/13 10:32:03;;;;;;;18.83;11.80;;;;;;;24.44;59.54;98869.63;4994373;28;20148;-80
2023/06/13 10:34:50;;;;;;;14.85;11.68;;;;;;;24.67;60.18;98876.41;4999830;28;20044;-79
2023/06/13 10:37:53;;;;;;;11.98;10.73;;;;;;;25.02;59.19;98871.06;4998832;28;20567;-79
2023/06/13 10:40:36;;;;;;;16.20;10.98;;;;;;;25.46;57.73;98867.00;5003124;28;20141;-79
2023/06/13 10:43:31;;;;;;;11.05;9.15;;;;;;;25.61;56.37;98856.81;5015507;28;20500;-79
2023/06/13 10:46:02;;;;;;;13.60;10.48;;;;;;;25.65;56.78;98854.63;5008646;28;20025;-79
2023/06/13 10:48:47;;;;;;;12.25;9.80;;;;;;;25.82;56.21;98851.66;5005381;28;20500;-78
2023/06/13 10:51:19;;;;;;;10.50;9.40;;;;;;;25.99;55.29;98860.97;5004071;28;20323;-79
2023/06/13 10:53:45;;;;;;;10.88;9.77;;;;;;;26.15;55.01;98848.63;4997931;28;20025;-79
2023/06/13 10:56:12;;;;;;;13.15;9.05;;;;;;;25.88;54.36;98852.72;5001814;28;20030;-79
2023/06/13 10:58:40;;;;;;;9.70;8.80;;;;;;;25.44;55.63;98846.63;5005321;28;20069;-79
2023/06/13 11:01:23;;;;;;;9.38;8.25;;;;;;;25.24;55.97;98847.59;5010688;28;20038;-79
2023/06/13 11:03:50;;;;;;;9.80;8.80;;;;;;;25.54;57.04;98847.63;4996991;28;20072;-79
2023/06/13 11:06:16;;;;;;;16.02;8.48;;;;;;;25.63;54.84;98847.72;5004537;28;20021;-79
2023/06/13 11:08:42;;;;;;;10.25;7.88;;;;;;;25.79;54.64;98849.72;5011331;28;20026;-79
2023/06/13 11:11:09;;;;;;;9.00;8.02;;;;;;;26.10;54.21;98834.88;5001334;28;20029;-79
2023/06/13 11:13:35;;;;;;;11.40;7.85;;;;;;;26.10;53.14;98825.47;5005954;28;20032;-79
2023/06/13 11:16:18;;;;;;;12.45;7.63;;;;;;;26.21;52.47;98818.19;5002326;28;20505;-79
2023/06/13 11:18:47;;;;;;;12.93;6.75;;;;;;;26.48;53.25;98825.50;5001566;28;20120;-79
2023/06/13 11:21:13;;;;;;;7.63;5.95;;;;;;;26.71;53.04;98825.56;5002077;28;20423;-79
2023/06/13 11:23:49;;;;;;;6.47;5.85;;;;;;;26.82;53.05;98828.06;5000503;28;20026;-79